Time;durP1;ratioP1;P1;durP2;ratioP2;P2;SDS_P1;SDS_P2;PMS_P1;PMS_P2;Temp;Humidity;BMP_temperature;BMP_pressure;BME280_temperature;BME280_humidity;BME280_pressure;Samples;Min_cycle;Max_cycle;Signal;HPM_P1;HPM_P2
2020/12/25 00:01:27;;;;;;;1999.90;999.90;;;4.60;99.90;;;;;;5031864;28;20698;-62
2020/12/25 00:03:53;;;;;;;1999.90;999.90;;;4.60;99.90;;;;;;5031730;28;20227;-63
2020/12/25 00:06:19;;;;;;;1999.90;999.90;;;4.60;99.90;;;;;;5031692;28;20176;-63
2020/12/25 00:08:45;;;;;;;1999.90;999.90;;;4.60;99.90;;;;;;5031610;28;20180;-63
2020/12/25 00:11:11;;;;;;;1999.90;999.90;;;4.60;99.90;;;;;;5031545;28;20188;-63
2020/12/25 00:13:37;;;;;;;1999.90;999.90;;;4.70;99.90;;;;;;5031600;28;20188;-62
2020/12/25 00:16:02;;;;;;;1999.90;999.90;;;4.70;99.90;;;;;;5031588;28;20411;-63
2020/12/25 00:18:28;;;;;;;1999.90;999.90;;;4.70;99.90;;;;;;5031246;28;20203;-63
2020/12/25 00:20:54;;;;;;;1999.90;999.90;;;4.70;99.90;;;;;;5031488;28;20171;-63
2020/12/25 00:23:20;;;;;;;1999.90;999.90;;;4.70;99.90;;;;;;5031415;28;20277;-62
2020/12/25 00:25:45;;;;;;;1999.90;999.90;;;4.70;99.90;;;;;;5031403;28;20646;-64
2020/12/25 00:28:12;;;;;;;1999.90;999.90;;;4.80;99.90;;;;;;5031108;28;20176;-63
2020/12/25 00:30:40;;;;;;;1999.90;999.90;;;4.70;99.90;;;;;;5031275;28;20172;-63
2020/12/25 00:33:06;;;;;;;1999.90;999.90;;;4.80;99.90;;;;;;5031062;28;20215;-63
2020/12/25 00:35:31;;;;;;;1999.90;999.90;;;4.90;99.90;;;;;;5031249;28;20164;-63
2020/12/25 00:37:58;;;;;;;1999.90;999.90;;;4.90;99.90;;;;;;5030402;28;20164;-64
2020/12/25 00:40:24;;;;;;;1999.90;999.90;;;4.90;99.90;;;;;;5030968;28;20175;-63
2020/12/25 00:42:50;;;;;;;1999.90;999.90;;;4.90;99.90;;;;;;5030977;28;20283;-63
2020/12/25 00:45:15;;;;;;;1999.90;999.90;;;4.90;99.90;;;;;;5031111;28;20175;-63
2020/12/25 00:47:41;;;;;;;1999.90;999.90;;;4.90;99.90;;;;;;5031020;28;20173;-63
2020/12/25 00:50:06;;;;;;;1999.90;999.90;;;4.80;99.90;;;;;;5030791;28;20183;-60
2020/12/25 00:52:32;;;;;;;1999.90;999.90;;;4.80;99.90;;;;;;5030983;28;20252;-63
2020/12/25 00:54:58;;;;;;;1999.90;999.90;;;4.80;99.90;;;;;;5030958;28;20172;-63
2020/12/25 00:57:23;;;;;;;1999.90;999.90;;;4.80;99.90;;;;;;5030953;28;20172;-63
2020/12/25 00:59:49;;;;;;;1999.90;999.90;;;4.80;99.90;;;;;;5030695;28;20176;-63
2020/12/25 01:02:15;;;;;;;1999.90;999.90;;;4.80;99.90;;;;;;5030847;28;20176;-61
2020/12/25 01:04:40;;;;;;;1999.90;999.90;;;4.80;99.90;;;;;;5030794;28;20220;-63
2020/12/25 01:07:07;;;;;;;1999.90;999.90;;;4.80;99.90;;;;;;5030956;28;20180;-63
2020/12/25 01:09:33;;;;;;;1999.90;999.90;;;4.80;99.90;;;;;;5030942;28;20173;-63
2020/12/25 01:12:00;;;;;;;1999.90;999.90;;;4.80;99.90;;;;;;5030952;28;20610;-63
2020/12/25 01:14:30;;;;;;;1999.90;999.90;;;4.80;99.90;;;;;;5030832;28;20653;-60
2020/12/25 01:16:56;;;;;;;1999.90;999.90;;;4.70;99.90;;;;;;5030800;28;20522;-62
2020/12/25 01:19:23;;;;;;;1999.90;999.90;;;4.70;99.90;;;;;;5030672;28;20602;-64
2020/12/25 01:21:48;;;;;;;1999.90;999.90;;;4.70;99.90;;;;;;5030846;28;20176;-63
2020/12/25 01:24:14;;;;;;;1999.90;999.90;;;4.70;99.90;;;;;;5030733;28;20204;-65
2020/12/25 01:26:39;;;;;;;1999.90;999.90;;;4.70;99.90;;;;;;5030757;28;20646;-63
2020/12/25 01:29:06;;;;;;;1999.90;999.90;;;4.70;99.90;;;;;;5030528;28;20179;-63
2020/12/25 01:31:31;;;;;;;1999.90;999.90;;;4.60;99.90;;;;;;5030542;28;20246;-63
2020/12/25 01:33:57;;;;;;;1999.90;999.90;;;4.60;99.90;;;;;;5030487;28;20204;-63
2020/12/25 01:36:22;;;;;;;1999.90;999.90;;;4.70;99.90;;;;;;5030631;28;20164;-63
2020/12/25 01:38:48;;;;;;;1999.90;999.90;;;4.60;99.90;;;;;;5030380;28;20703;-64
2020/12/25 01:41:14;;;;;;;1999.90;999.90;;;4.60;99.90;;;;;;5030539;28;20181;-63
2020/12/25 01:43:39;;;;;;;1999.90;999.90;;;4.70;99.90;;;;;;5030422;28;20192;-62
2020/12/25 01:46:05;;;;;;;1999.90;999.90;;;4.70;99.90;;;;;;5030553;28;20194;-60
2020/12/25 01:48:32;;;;;;;1999.90;999.90;;;4.60;99.90;;;;;;5030269;28;20169;-63
2020/12/25 01:50:59;;;;;;;1999.90;999.90;;;4.60;99.90;;;;;;5033677;28;20497;-63
2020/12/25 01:53:27;;;;;;;1999.90;999.90;;;4.60;99.90;;;;;;5034199;28;20192;-62
2020/12/25 01:55:54;;;;;;;1999.90;999.90;;;4.60;99.90;;;;;;5034213;28;20318;-64
2020/12/25 01:58:22;;;;;;;1999.90;999.90;;;4.60;99.90;;;;;;5033868;28;20164;-63
2020/12/25 02:00:48;;;;;;;1999.90;999.90;;;4.70;99.90;;;;;;5034082;28;20172;-63
2020/12/25 02:03:18;;;;;;;1999.90;999.90;;;4.60;99.90;;;;;;5034004;28;20196;-63
2020/12/25 02:05:46;;;;;;;1999.90;999.90;;;4.60;99.90;;;;;;5033998;28;20259;-63
2020/12/25 02:08:14;;;;;;;1999.90;999.90;;;4.60;99.90;;;;;;5033682;28;20181;-60
2020/12/25 02:10:42;;;;;;;1999.90;999.90;;;4.50;99.90;;;;;;5034006;28;20262;-64
2020/12/25 02:13:09;;;;;;;1999.90;999.90;;;4.50;99.90;;;;;;5033662;28;20212;-62
2020/12/25 02:15:35;;;;;;;1999.90;999.90;;;4.60;99.90;;;;;;5033847;28;20248;-62
2020/12/25 02:18:01;;;;;;;1999.90;999.90;;;4.60;99.90;;;;;;5033923;28;20172;-63
2020/12/25 02:20:27;;;;;;;1999.90;999.90;;;4.60;99.90;;;;;;5033798;28;20522;-63
2020/12/25 02:22:53;;;;;;;1999.90;999.90;;;4.60;99.90;;;;;;5033749;28;20242;-64
2020/12/25 02:25:18;;;;;;;1999.90;999.90;;;4.60;99.90;;;;;;5033676;28;20173;-63
2020/12/25 02:27:44;;;;;;;1999.90;999.90;;;4.50;99.90;;;;;;5033539;28;20176;-63
2020/12/25 02:30:09;;;;;;;1999.90;999.90;;;4.50;99.90;;;;;;5033314;28;20203;-63
2020/12/25 02:32:36;;;;;;;1999.90;999.90;;;4.50;99.90;;;;;;5033410;28;20287;-64
2020/12/25 02:35:02;;;;;;;1999.90;999.90;;;4.40;99.90;;;;;;5033497;28;20173;-63
2020/12/25 02:37:28;;;;;;;1999.90;999.90;;;4.40;99.90;;;;;;5033443;28;20168;-64
2020/12/25 02:39:53;;;;;;;1999.90;999.90;;;4.40;99.90;;;;;;5033300;28;20173;-63
2020/12/25 02:42:19;;;;;;;1999.90;999.90;;;4.40;99.90;;;;;;5033560;28;20854;-63
2020/12/25 02:44:45;;;;;;;1999.90;999.90;;;4.30;99.90;;;;;;5033284;28;20485;-63
2020/12/25 02:47:11;;;;;;;1999.90;999.90;;;4.40;99.90;;;;;;5033329;28;20172;-63
2020/12/25 02:49:37;;;;;;;1999.90;999.90;;;4.30;99.90;;;;;;5033040;28;20199;-63
2020/12/25 02:52:03;;;;;;;1999.90;999.90;;;4.30;99.90;;;;;;5033227;28;20235;-63
2020/12/25 02:54:29;;;;;;;1999.90;999.90;;;4.30;99.90;;;;;;5033316;28;20224;-62
2020/12/25 02:56:54;;;;;;;1999.90;999.90;;;4.30;99.90;;;;;;5033370;28;20196;-63
2020/12/25 02:59:20;;;;;;;1999.90;999.90;;;4.30;99.90;;;;;;5032998;28;20164;-63
2020/12/25 03:01:50;;;;;;;1999.90;999.90;;;4.30;99.90;;;;;;5032197;28;20207;-63
2020/12/25 03:04:16;;;;;;;1999.90;999.90;;;4.30;99.90;;;;;;5033300;28;20245;-63
2020/12/25 03:06:41;;;;;;;1999.90;999.90;;;4.30;99.90;;;;;;5033002;28;20742;-63
2020/12/25 03:09:07;;;;;;;1999.90;999.90;;;4.40;99.90;;;;;;5032724;28;20399;-63
2020/12/25 03:11:33;;;;;;;1999.90;999.90;;;4.40;99.90;;;;;;5032703;28;20584;-61
2020/12/25 03:13:58;;;;;;;1999.90;999.90;;;4.30;99.90;;;;;;5032778;28;20200;-63
2020/12/25 03:16:24;;;;;;;1999.90;999.90;;;4.30;99.90;;;;;;5032804;28;20165;-63
2020/12/25 03:18:49;;;;;;;1999.90;999.90;;;4.30;99.90;;;;;;5032534;28;20192;-62
2020/12/25 03:21:15;;;;;;;1999.90;999.90;;;4.30;99.90;;;;;;5033289;28;20176;-61
2020/12/25 03:23:40;;;;;;;1999.90;999.90;;;4.20;99.90;;;;;;5033200;28;20192;-62
2020/12/25 03:26:06;;;;;;;1999.90;999.90;;;4.20;99.90;;;;;;5033305;28;20580;-60
2020/12/25 03:28:32;;;;;;;1999.90;999.90;;;4.30;99.90;;;;;;5032855;28;20252;-63
2020/12/25 03:30:57;;;;;;;1999.90;999.90;;;4.20;99.90;;;;;;5033066;28;20176;-62
2020/12/25 03:33:23;;;;;;;1999.90;999.90;;;4.20;99.90;;;;;;5032507;28;20246;-63
2020/12/25 03:35:49;;;;;;;1999.90;999.90;;;4.20;99.90;;;;;;5032337;28;20173;-62
2020/12/25 03:38:14;;;;;;;1999.90;999.90;;;4.20;99.90;;;;;;5032040;28;20176;-63
2020/12/25 03:40:40;;;;;;;1999.90;999.90;;;4.20;99.90;;;;;;5032147;28;20195;-61
2020/12/25 03:43:05;;;;;;;1999.90;999.90;;;4.20;99.90;;;;;;5032147;28;20189;-63
2020/12/25 03:45:32;;;;;;;1999.90;999.90;;;4.10;99.90;;;;;;5032143;28;20642;-63
2020/12/25 03:48:00;;;;;;;1999.90;999.90;;;4.10;99.90;;;;;;5032053;28;20176;-63
2020/12/25 03:50:27;;;;;;;1999.90;999.90;;;4.10;99.90;;;;;;5031920;28;20279;-63
2020/12/25 03:52:52;;;;;;;1999.90;999.90;;;4.10;99.90;;;;;;5031948;28;20874;-63
2020/12/25 03:55:18;;;;;;;1999.90;999.90;;;4.10;99.90;;;;;;5031917;28;20280;-60
2020/12/25 03:57:44;;;;;;;1999.90;999.90;;;4.10;99.90;;;;;;5031954;28;20200;-63
2020/12/25 04:00:09;;;;;;;1999.90;999.90;;;4.10;99.90;;;;;;5031824;28;20237;-63
2020/12/25 04:02:35;;;;;;;1999.90;999.90;;;4.00;99.90;;;;;;5031894;28;20242;-64
2020/12/25 04:05:00;;;;;;;1999.90;999.90;;;4.00;99.90;;;;;;5074258;22;20228;-65
2020/12/25 04:07:26;;;;;;;1999.90;999.90;;;3.90;99.90;;;;;;5034078;28;20254;-68
2020/12/25 04:09:52;;;;;;;1999.90;999.90;;;3.90;99.90;;;;;;5036236;28;20247;-69
2020/12/25 04:12:17;;;;;;;1999.90;999.90;;;3.80;99.90;;;;;;5035284;28;20677;-66
2020/12/25 04:14:43;;;;;;;1999.90;999.90;;;3.80;99.90;;;;;;5036087;28;20165;-67
2020/12/25 04:17:09;;;;;;;1999.90;999.90;;;3.70;99.90;;;;;;5036601;28;20461;-66
2020/12/25 04:19:34;;;;;;;1999.90;999.90;;;3.70;99.90;;;;;;5035844;28;20192;-69
2020/12/25 04:22:00;;;;;;;1999.90;999.90;;;3.70;99.90;;;;;;5032001;28;20689;-66
2020/12/25 04:24:26;;;;;;;1999.90;999.90;;;3.70;99.90;;;;;;5031453;28;20207;-64
2020/12/25 04:26:51;;;;;;;1999.90;999.90;;;3.70;99.90;;;;;;5031561;28;20280;-64
2020/12/25 04:29:17;;;;;;;1999.90;999.90;;;3.60;99.90;;;;;;5031272;28;20201;-66
2020/12/25 04:31:42;;;;;;;1999.90;999.90;;;3.50;99.90;;;;;;5032717;28;20192;-68
2020/12/25 04:34:08;;;;;;;1999.90;999.90;;;3.50;99.90;;;;;;5036223;28;20164;-65
2020/12/25 04:36:34;;;;;;;1999.90;999.90;;;3.50;99.90;;;;;;5035571;28;20194;-63
2020/12/25 04:38:59;;;;;;;1999.90;999.90;;;3.50;99.90;;;;;;5035963;28;20164;-67
2020/12/25 04:41:25;;;;;;;1999.90;999.90;;;3.50;99.90;;;;;;5035593;28;20180;-67
2020/12/25 04:43:52;;;;;;;1999.90;999.90;;;3.50;99.90;;;;;;5036906;28;20207;-69
2020/12/25 04:46:18;;;;;;;1999.90;999.90;;;3.40;99.90;;;;;;5037252;28;20211;-65
2020/12/25 04:48:44;;;;;;;1999.90;999.90;;;3.40;99.90;;;;;;5036031;28;20176;-69
2020/12/25 04:51:10;;;;;;;1999.90;999.90;;;3.40;99.90;;;;;;5034642;28;20735;-66
2020/12/25 04:53:36;;;;;;;1999.90;999.90;;;3.50;99.90;;;;;;5034685;28;20830;-69
2020/12/25 04:56:01;;;;;;;1999.90;999.90;;;3.50;99.90;;;;;;5034359;28;20567;-67
2020/12/25 04:58:27;;;;;;;1999.90;999.90;;;3.40;99.90;;;;;;5034555;28;20206;-69
2020/12/25 05:01:07;;;;;;;1999.90;999.90;;;3.40;99.90;;;;;;5034460;28;20673;-68
2020/12/25 05:03:41;;;;;;;1999.90;999.90;;;3.40;99.90;;;;;;5034375;28;20255;-65
2020/12/25 05:06:08;;;;;;;1999.90;999.90;;;3.30;99.90;;;;;;5034540;28;20206;-65
2020/12/25 05:08:36;;;;;;;1999.90;999.90;;;3.20;99.90;;;;;;5034563;28;20165;-65
2020/12/25 05:11:03;;;;;;;1999.90;999.90;;;3.10;99.90;;;;;;5034543;28;20172;-69
2020/12/25 05:13:29;;;;;;;1999.90;999.90;;;3.10;99.90;;;;;;5034821;28;20161;-66
2020/12/25 05:15:55;;;;;;;1999.90;999.90;;;3.00;99.90;;;;;;5034383;28;20216;-66
2020/12/25 05:18:23;;;;;;;1999.90;999.90;;;2.90;99.90;;;;;;5034334;28;20533;-67
2020/12/25 05:20:52;;;;;;;1999.90;999.90;;;2.80;99.90;;;;;;5034860;28;20172;-66
2020/12/25 05:23:18;;;;;;;1999.90;999.90;;;2.80;99.90;;;;;;5034726;28;20263;-68
2020/12/25 05:25:46;;;;;;;1999.90;999.90;;;2.70;99.90;;;;;;5037873;28;20231;-66
2020/12/25 05:28:13;;;;;;;1999.90;999.90;;;2.70;99.90;;;;;;5038573;28;20204;-67
2020/12/25 05:30:43;;;;;;;1999.90;999.90;;;2.70;99.90;;;;;;5037071;28;20656;-64
2020/12/25 05:33:10;;;;;;;1999.90;999.90;;;2.70;99.90;;;;;;5034659;28;20609;-67
2020/12/25 05:35:36;;;;;;;1999.90;999.90;;;2.60;99.90;;;;;;5034833;28;20272;-66
2020/12/25 05:38:12;;;;;;;1999.90;999.90;;;2.60;99.90;;;;;;5034564;28;20172;-66
2020/12/25 05:40:43;;;;;;;1999.90;999.90;;;2.50;99.90;;;;;;5034624;28;20175;-66
2020/12/25 05:43:12;;;;;;;1999.90;999.90;;;2.50;99.90;;;;;;5034461;28;20678;-66
2020/12/25 05:45:42;;;;;;;1999.90;999.90;;;2.40;99.90;;;;;;5034502;28;20196;-66
2020/12/25 05:48:08;;;;;;;1999.90;999.90;;;2.40;99.90;;;;;;5034339;28;20256;-66
2020/12/25 05:50:35;;;;;;;1999.90;999.90;;;2.40;99.90;;;;;;5034390;28;20711;-66
2020/12/25 05:53:01;;;;;;;1999.90;999.90;;;2.30;99.90;;;;;;5034327;28;20227;-66
2020/12/25 05:55:27;;;;;;;1999.90;999.90;;;2.30;99.90;;;;;;5034222;28;20197;-67
2020/12/25 05:57:54;;;;;;;1999.90;999.90;;;2.30;99.90;;;;;;5034448;28;20173;-65
2020/12/25 06:00:23;;;;;;;1999.90;999.90;;;2.30;99.90;;;;;;5033966;28;20395;-65
2020/12/25 06:02:50;;;;;;;1999.90;999.90;;;2.20;99.90;;;;;;5034211;28;20172;-67
2020/12/25 06:05:17;;;;;;;1999.90;999.90;;;2.30;99.90;;;;;;5033968;28;20236;-66
2020/12/25 06:07:52;;;;;;;1999.90;999.90;;;2.20;99.90;;;;;;5034133;28;20591;-65
2020/12/25 06:10:24;;;;;;;1999.90;999.90;;;2.20;99.90;;;;;;5033785;28;20175;-67
2020/12/25 06:12:50;;;;;;;1999.90;999.90;;;2.20;99.90;;;;;;5033835;28;20208;-66
2020/12/25 06:15:28;;;;;;;1999.90;999.90;;;2.10;99.90;;;;;;5034242;28;20271;-66
2020/12/25 06:18:25;;;;;;;1999.90;999.90;;;2.10;99.90;;;;;;5034270;28;20254;-66
2020/12/25 06:21:04;;;;;;;1999.90;999.90;;;2.20;99.90;;;;;;5034124;28;20165;-67
2020/12/25 06:23:30;;;;;;;1999.90;999.90;;;2.20;99.90;;;;;;5033935;28;20204;-66
2020/12/25 06:25:56;;;;;;;1999.90;999.90;;;2.30;99.90;;;;;;5033749;28;20698;-66
2020/12/25 06:28:22;;;;;;;1999.90;999.90;;;2.30;99.90;;;;;;5033614;28;20172;-67
2020/12/25 06:30:47;;;;;;;1999.90;999.90;;;2.30;99.90;;;;;;5033721;28;20203;-67
2020/12/25 06:33:13;;;;;;;1999.90;999.90;;;2.30;99.90;;;;;;5033663;28;20250;-66
2020/12/25 06:35:43;;;;;;;1999.90;999.90;;;2.30;99.90;;;;;;5032532;28;20429;-67
2020/12/25 06:38:10;;;;;;;1999.90;999.90;;;2.30;99.90;;;;;;5033061;28;20259;-67
2020/12/25 06:40:36;;;;;;;1999.90;999.90;;;2.30;99.90;;;;;;5033499;28;20235;-66
2020/12/25 06:43:03;;;;;;;1999.90;999.90;;;2.30;99.90;;;;;;5033504;28;20637;-67
2020/12/25 06:45:32;;;;;;;1999.90;999.90;;;2.30;99.90;;;;;;5033407;28;20900;-66
2020/12/25 06:48:13;;;;;;;1999.90;999.90;;;2.20;99.90;;;;;;5033314;28;20184;-67
2020/12/25 06:51:00;;;;;;;1999.90;999.90;;;2.30;99.90;;;;;;5033291;28;20176;-65
2020/12/25 06:53:38;;;;;;;1999.90;999.90;;;2.30;99.90;;;;;;5032915;28;20196;-66
2020/12/25 06:56:18;;;;;;;1999.90;999.90;;;2.30;99.90;;;;;;5033194;28;20196;-67
2020/12/25 06:58:54;;;;;;;1999.90;999.90;;;2.30;99.90;;;;;;5032952;28;20160;-67
2020/12/25 07:01:40;;;;;;;1999.90;999.90;;;2.30;99.90;;;;;;5033292;28;20182;-66
2020/12/25 07:04:05;;;;;;;1999.90;999.90;;;2.30;99.90;;;;;;5033061;28;20177;-67
2020/12/25 07:06:32;;;;;;;1999.90;999.90;;;2.30;99.90;;;;;;5032752;28;20572;-64
2020/12/25 07:09:11;;;;;;;1999.90;999.90;;;2.20;99.90;;;;;;5032625;28;20226;-65
2020/12/25 07:11:37;;;;;;;1999.90;999.90;;;2.10;99.90;;;;;;5032842;28;20199;-64
2020/12/25 07:14:04;;;;;;;1999.90;999.90;;;2.10;99.90;;;;;;5032904;28;20191;-64
2020/12/25 07:16:30;;;;;;;1999.90;999.90;;;2.10;99.90;;;;;;5032901;28;20579;-65
2020/12/25 07:18:56;;;;;;;1999.90;999.90;;;2.10;99.90;;;;;;5032475;28;20244;-66
2020/12/25 07:21:21;;;;;;;1999.90;999.90;;;2.20;99.90;;;;;;5032645;28;20215;-65
2020/12/25 07:23:47;;;;;;;1999.90;999.90;;;2.20;99.90;;;;;;5032675;28;20168;-64
2020/12/25 07:26:14;;;;;;;1999.90;999.90;;;2.20;99.90;;;;;;5032558;28;20220;-64
2020/12/25 07:28:40;;;;;;;1999.90;999.90;;;2.20;99.90;;;;;;5032428;28;20505;-66
2020/12/25 07:31:06;;;;;;;1999.90;999.90;;;2.30;99.90;;;;;;5032541;28;20552;-66
2020/12/25 07:33:31;;;;;;;1999.90;999.90;;;2.40;99.90;;;;;;5032484;28;20167;-66
2020/12/25 07:35:58;;;;;;;1999.90;999.90;;;2.40;99.90;;;;;;5032359;28;20415;-65
2020/12/25 07:38:25;;;;;;;1999.90;999.90;;;2.50;99.90;;;;;;5032162;28;20537;-66
2020/12/25 07:40:51;;;;;;;1999.90;999.90;;;2.60;99.90;;;;;;5032378;28;20175;-67
2020/12/25 07:43:17;;;;;;;1999.90;999.90;;;2.60;99.90;;;;;;5032353;28;20318;-66
2020/12/25 07:45:43;;;;;;;1999.90;999.90;;;2.70;99.90;;;;;;5032293;28;20271;-65
2020/12/25 07:48:09;;;;;;;1999.90;999.90;;;2.70;99.90;;;;;;5031695;28;20422;-65
2020/12/25 07:50:40;;;;;;;1999.90;999.90;;;2.80;99.90;;;;;;5032160;28;20414;-65
2020/12/25 07:53:10;;;;;;;1999.90;999.90;;;2.80;99.90;;;;;;5032167;28;20291;-64
2020/12/25 07:55:37;;;;;;;1999.90;999.90;;;2.80;99.90;;;;;;5032130;28;20697;-64
2020/12/25 07:58:03;;;;;;;1999.90;999.90;;;2.80;99.90;;;;;;5032055;28;20188;-65
2020/12/25 08:00:33;;;;;;;1999.90;999.90;;;2.90;99.90;;;;;;5031865;28;20207;-66
2020/12/25 08:02:59;;;;;;;1999.90;999.90;;;2.90;99.90;;;;;;5031915;28;20645;-66
2020/12/25 08:05:28;;;;;;;1999.90;999.90;;;2.80;99.90;;;;;;5031761;28;20250;-67
2020/12/25 08:07:54;;;;;;;1999.90;999.90;;;2.90;99.90;;;;;;5032139;28;20176;-67
2020/12/25 08:10:21;;;;;;;1999.90;999.90;;;2.90;99.90;;;;;;5031779;28;20176;-67
2020/12/25 08:12:53;;;;;;;1999.90;999.90;;;2.90;99.90;;;;;;5032166;28;20230;-67
2020/12/25 08:15:19;;;;;;;1999.90;999.90;;;3.00;99.90;;;;;;5031654;28;20585;-66
2020/12/25 08:17:52;;;;;;;1999.90;999.90;;;3.00;99.90;;;;;;5031573;28;20668;-67
2020/12/25 08:20:18;;;;;;;1999.90;999.90;;;3.00;99.90;;;;;;5031433;28;20186;-66
2020/12/25 08:22:43;;;;;;;1999.90;999.90;;;3.00;99.90;;;;;;5031621;28;20289;-66
2020/12/25 08:25:09;;;;;;;1999.90;999.90;;;3.00;99.90;;;;;;5031517;28;20192;-66
2020/12/25 08:27:36;;;;;;;1999.90;999.90;;;3.00;99.90;;;;;;5031518;28;20177;-67
2020/12/25 08:30:05;;;;;;;1999.90;999.90;;;3.00;99.90;;;;;;5031154;28;20410;-66
2020/12/25 08:32:32;;;;;;;1999.90;999.90;;;3.00;99.90;;;;;;5031259;28;20188;-66
2020/12/25 08:35:13;;;;;;;1999.90;999.90;;;3.10;99.90;;;;;;5031259;28;20556;-67
2020/12/25 08:37:50;;;;;;;1999.90;999.90;;;3.00;99.90;;;;;;5031248;28;20607;-66
2020/12/25 08:40:16;;;;;;;1999.90;999.90;;;3.00;99.90;;;;;;5031035;28;20172;-65
2020/12/25 08:42:42;;;;;;;1999.90;999.90;;;3.10;99.90;;;;;;5031138;28;20215;-67
2020/12/25 08:45:08;;;;;;;1999.90;999.90;;;3.00;99.90;;;;;;5031135;28;20227;-66
2020/12/25 08:47:34;;;;;;;1999.90;999.90;;;2.90;99.90;;;;;;5031153;28;20399;-66
2020/12/25 08:50:00;;;;;;;1999.90;999.90;;;2.80;99.90;;;;;;5030873;28;20172;-66
2020/12/25 08:52:26;;;;;;;1999.90;999.90;;;2.80;99.90;;;;;;5031023;28;20211;-65
2020/12/25 08:54:59;;;;;;;1999.90;999.90;;;2.70;99.90;;;;;;5030944;28;20465;-66
2020/12/25 08:57:25;;;;;;;1999.90;999.90;;;2.70;99.90;;;;;;5031001;28;20597;-65
2020/12/25 09:00:21;;;;;;;1999.90;999.90;;;2.80;99.90;;;;;;5030189;28;20172;-65
2020/12/25 09:02:56;;;;;;;1999.90;999.90;;;2.80;99.90;;;;;;5022037;28;20183;-66
2020/12/25 09:05:22;;;;;;;1999.90;999.90;;;2.80;99.90;;;;;;5030817;28;20215;-66
2020/12/25 09:07:47;;;;;;;1999.90;999.90;;;2.80;99.90;;;;;;5030809;28;20724;-66
2020/12/25 09:10:13;;;;;;;1999.90;999.90;;;2.90;99.90;;;;;;5030695;28;20196;-66
2020/12/25 09:12:38;;;;;;;1999.90;999.90;;;2.90;99.90;;;;;;5030806;28;20681;-67
2020/12/25 09:15:04;;;;;;;1999.90;999.90;;;3.00;99.90;;;;;;5030798;28;20545;-66
2020/12/25 09:17:29;;;;;;;1999.90;999.90;;;3.10;99.90;;;;;;5030783;28;20164;-66
2020/12/25 09:19:55;;;;;;;1999.90;999.90;;;3.10;99.90;;;;;;5030539;28;20554;-66
2020/12/25 09:22:21;;;;;;;1999.90;999.90;;;3.00;99.90;;;;;;5030784;28;20168;-66
2020/12/25 09:24:47;;;;;;;1999.90;999.90;;;3.00;99.90;;;;;;5030808;28;20233;-66
2020/12/25 09:27:12;;;;;;;1999.90;999.90;;;3.00;99.90;;;;;;5030801;28;20169;-66
2020/12/25 09:29:38;;;;;;;1999.90;999.90;;;3.00;99.90;;;;;;5030597;28;20178;-65
2020/12/25 09:32:03;;;;;;;1999.90;999.90;;;3.10;99.90;;;;;;5030590;28;20192;-66
2020/12/25 09:34:29;;;;;;;1999.90;999.90;;;3.10;99.90;;;;;;5030676;28;20187;-66
2020/12/25 09:36:55;;;;;;;1999.90;999.90;;;3.10;99.90;;;;;;5030463;28;20189;-66
2020/12/25 09:39:20;;;;;;;1999.90;999.90;;;3.10;99.90;;;;;;5030359;28;20609;-66
2020/12/25 09:41:48;;;;;;;1999.90;999.90;;;3.20;99.90;;;;;;5031026;28;20179;-66
2020/12/25 09:44:14;;;;;;;1999.90;999.90;;;3.30;99.90;;;;;;5028673;28;20234;-67
2020/12/25 09:46:43;;;;;;;1999.90;999.90;;;3.40;99.90;;;;;;5029423;28;20405;-67
2020/12/25 09:49:09;;;;;;;1999.90;999.90;;;3.70;99.90;;;;;;5029372;28;20545;-67
2020/12/25 09:51:35;;;;;;;1999.90;999.90;;;3.80;99.90;;;;;;5029358;28;20700;-67
2020/12/25 09:54:00;;;;;;;1999.90;999.90;;;4.00;99.90;;;;;;5029710;28;20168;-67
2020/12/25 09:56:26;;;;;;;1999.90;999.90;;;4.10;99.90;;;;;;5029455;28;20692;-66
2020/12/25 09:58:52;;;;;;;1999.90;999.90;;;4.10;99.90;;;;;;5029241;28;20719;-66
2020/12/25 10:01:19;;;;;;;1999.90;999.90;;;4.10;99.90;;;;;;5029275;28;20169;-65
2020/12/25 10:03:45;;;;;;;1999.90;999.90;;;4.10;99.90;;;;;;5026948;28;20544;-65
2020/12/25 10:06:11;;;;;;;1999.90;999.90;;;4.20;99.90;;;;;;5028328;28;20275;-65
2020/12/25 10:08:36;;;;;;;1999.90;999.90;;;4.20;99.90;;;;;;5028160;28;20542;-65
2020/12/25 10:11:02;;;;;;;1999.90;999.90;;;4.20;99.90;;;;;;5030078;28;20218;-66
2020/12/25 10:13:28;;;;;;;1999.90;999.90;;;4.20;99.90;;;;;;5032311;28;20236;-65
2020/12/25 10:15:53;;;;;;;1999.90;999.90;;;4.20;99.90;;;;;;5032215;28;20469;-65
2020/12/25 10:18:19;;;;;;;1999.90;999.90;;;4.20;99.90;;;;;;5031744;28;20160;-65
2020/12/25 10:20:47;;;;;;;1999.90;999.90;;;4.20;99.90;;;;;;5031847;28;20172;-66
2020/12/25 10:23:12;;;;;;;1999.90;999.90;;;4.20;99.90;;;;;;5031809;28;20211;-66
2020/12/25 10:25:38;;;;;;;1999.90;999.90;;;4.30;99.90;;;;;;5032129;28;20878;-66
2020/12/25 10:28:04;;;;;;;1999.90;999.90;;;4.30;99.90;;;;;;5030700;28;20183;-67
2020/12/25 10:30:29;;;;;;;1999.90;999.90;;;4.30;99.90;;;;;;5031287;28;20187;-66
2020/12/25 10:32:55;;;;;;;1999.90;999.90;;;4.50;99.90;;;;;;5032016;28;20218;-66
2020/12/25 10:35:20;;;;;;;1999.90;999.90;;;4.60;99.90;;;;;;5031040;28;20184;-66
2020/12/25 10:37:46;;;;;;;1999.90;999.90;;;4.60;99.90;;;;;;5031526;28;20168;-66
2020/12/25 10:40:11;;;;;;;1999.90;999.90;;;4.60;99.90;;;;;;5031526;28;20187;-67
2020/12/25 10:42:37;;;;;;;1999.90;999.90;;;4.60;99.90;;;;;;5031173;28;20176;-65
2020/12/25 10:45:03;;;;;;;1999.90;999.90;;;4.70;99.90;;;;;;5031500;28;20203;-67
2020/12/25 10:47:28;;;;;;;1999.90;999.90;;;4.80;99.90;;;;;;5031307;28;20597;-67
2020/12/25 10:49:54;;;;;;;1999.90;999.90;;;4.90;99.90;;;;;;5030183;28;20179;-66
2020/12/25 10:52:20;;;;;;;1999.90;999.90;;;4.80;99.90;;;;;;5031020;28;20211;-66
2020/12/25 10:54:45;;;;;;;1999.90;999.90;;;4.80;99.90;;;;;;5031543;28;20172;-66
2020/12/25 10:57:11;;;;;;;1999.90;999.90;;;4.80;99.90;;;;;;5030861;28;20407;-67
2020/12/25 10:59:36;;;;;;;1999.90;999.90;;;5.00;99.90;;;;;;5031259;28;20214;-67
2020/12/25 11:02:02;;;;;;;1999.90;999.90;;;5.10;99.90;;;;;;5031507;28;20182;-66
2020/12/25 11:04:28;;;;;;;1999.90;999.90;;;5.00;99.90;;;;;;5030967;28;20168;-68
2020/12/25 11:06:53;;;;;;;1999.90;999.90;;;5.00;99.90;;;;;;5031180;28;20200;-67
2020/12/25 11:09:19;;;;;;;1999.90;999.90;;;4.90;99.90;;;;;;5030783;28;20181;-67
2020/12/25 11:11:44;;;;;;;1999.90;999.90;;;4.90;99.90;;;;;;5030678;28;20223;-66
2020/12/25 11:14:10;;;;;;;1999.90;999.90;;;4.90;99.90;;;;;;5031286;28;20169;-66
2020/12/25 11:16:37;;;;;;;1999.90;999.90;;;4.90;99.90;;;;;;5031388;28;20192;-65
2020/12/25 11:19:13;;;;;;;1999.90;999.90;;;4.90;99.90;;;;;;5030716;28;20407;-68
2020/12/25 11:21:39;;;;;;;1999.90;999.90;;;4.90;99.90;;;;;;5030863;28;20168;-67
2020/12/25 11:24:05;;;;;;;1999.90;999.90;;;4.80;99.90;;;;;;5030900;28;20184;-67
2020/12/25 11:26:32;;;;;;;1999.90;999.90;;;4.80;99.90;;;;;;5030483;28;20195;-68
2020/12/25 11:29:05;;;;;;;1999.90;999.90;;;4.80;99.90;;;;;;5030309;28;20469;-67
2020/12/25 11:31:32;;;;;;;1999.90;999.90;;;4.80;99.90;;;;;;5030712;28;20199;-67
2020/12/25 11:33:58;;;;;;;1999.90;999.90;;;4.90;99.90;;;;;;5030711;28;20168;-67
2020/12/25 11:36:32;;;;;;;1999.90;999.90;;;4.90;99.90;;;;;;5030874;28;20754;-67
2020/12/25 11:38:59;;;;;;;1999.90;999.90;;;4.90;99.90;;;;;;5030733;28;20440;-67
2020/12/25 11:41:25;;;;;;;1999.90;999.90;;;4.80;99.90;;;;;;5030165;28;20302;-67
2020/12/25 11:43:52;;;;;;;1999.90;999.90;;;4.90;99.90;;;;;;5030645;28;20396;-67
2020/12/25 11:46:19;;;;;;;1999.90;999.90;;;4.80;99.90;;;;;;5030700;28;20326;-67
2020/12/25 11:48:46;;;;;;;1999.90;999.90;;;5.00;99.90;;;;;;5029381;28;20702;-67
2020/12/25 11:51:17;;;;;;;1999.90;999.90;;;5.80;99.90;;;;;;5030350;28;20262;-66
2020/12/25 11:53:43;;;;;;;1999.90;999.90;;;6.60;99.90;;;;;;5030326;28;20456;-66
2020/12/25 11:56:09;;;;;;;1999.90;999.90;;;7.10;99.90;;;;;;5029943;28;20898;-66
2020/12/25 11:58:34;;;;;;;1999.90;999.90;;;7.30;99.90;;;;;;5029850;28;20399;-67
2020/12/25 12:01:00;;;;;;;1999.90;999.90;;;7.70;99.90;;;;;;5030105;28;20643;-67
2020/12/25 12:03:26;;;;;;;1999.90;999.90;;;7.80;99.90;;;;;;5029789;28;20188;-68
2020/12/25 12:05:53;;;;;;;1999.90;999.90;;;7.30;99.90;;;;;;5030047;28;20200;-67
2020/12/25 12:08:18;;;;;;;1999.90;999.90;;;6.90;99.90;;;;;;5029305;28;20415;-68